createdAt,value
2023-04-16T00:01:51.249Z,9.43
2023-04-16T00:04:18.124Z,9.05
2023-04-16T00:06:44.960Z,8.60
2023-04-16T00:09:11.766Z,8.52
2023-04-16T00:11:38.674Z,8.70
2023-04-16T00:14:05.949Z,9.60
2023-04-16T00:16:32.976Z,9.07
2023-04-16T00:19:00.064Z,10.27
2023-04-16T00:21:26.874Z,9.60
2023-04-16T00:23:53.727Z,10.20
2023-04-16T00:26:20.766Z,9.07
2023-04-16T00:28:47.636Z,10.55
2023-04-16T00:31:14.481Z,10.13
2023-04-16T00:33:41.496Z,9.82
2023-04-16T00:36:08.285Z,10.50
2023-04-16T00:38:35.302Z,10.40
2023-04-16T00:41:02.179Z,10.93
2023-04-16T00:43:29.048Z,10.88
2023-04-16T00:45:57.381Z,10.80
2023-04-16T00:48:24.708Z,11.07
2023-04-16T00:50:51.710Z,11.93
2023-04-16T00:53:18.599Z,10.07
2023-04-16T00:55:46.164Z,11.35
2023-04-16T00:58:13.251Z,11.50
2023-04-16T01:00:40.016Z,12.15
2023-04-16T01:03:06.855Z,11.23
2023-04-16T01:05:33.724Z,11.07
2023-04-16T01:08:01.759Z,11.63
2023-04-16T01:10:28.659Z,12.00
2023-04-16T01:12:55.499Z,12.23
2023-04-16T01:15:22.339Z,12.82
2023-04-16T01:17:49.415Z,12.07
2023-04-16T01:20:16.349Z,12.25
2023-04-16T01:22:43.090Z,12.10
2023-04-16T01:25:14.650Z,12.50
2023-04-16T01:27:41.670Z,12.45
2023-04-16T01:30:08.943Z,12.38
2023-04-16T01:32:35.753Z,11.93
2023-04-16T01:35:02.480Z,12.88
2023-04-16T01:37:29.712Z,13.77
2023-04-16T01:39:56.606Z,13.05
2023-04-16T01:42:23.458Z,13.52
2023-04-16T01:44:50.197Z,13.45
2023-04-16T01:47:17.228Z,13.02
2023-04-16T01:49:45.818Z,11.82
2023-04-16T01:52:12.647Z,12.63
2023-04-16T01:54:39.427Z,12.68
2023-04-16T01:57:06.241Z,12.88
2023-04-16T01:59:33.036Z,14.13
2023-04-16T02:02:15.065Z,13.98
2023-04-16T02:04:46.637Z,12.93
2023-04-16T02:07:13.372Z,13.57
2023-04-16T02:09:41.410Z,14.98
2023-04-16T02:12:08.258Z,15.25
2023-04-16T02:14:35.113Z,14.07
2023-04-16T02:17:01.862Z,14.73
2023-04-16T02:19:28.898Z,14.77
2023-04-16T02:21:55.761Z,15.70
2023-04-16T02:24:22.543Z,14.95
2023-04-16T02:26:49.460Z,15.63
2023-04-16T02:29:16.755Z,16.75
2023-04-16T02:31:43.693Z,16.40
2023-04-16T02:34:10.508Z,17.10
2023-04-16T02:36:37.240Z,17.50
2023-04-16T02:39:04.860Z,18.63
2023-04-16T02:41:31.650Z,18.95
2023-04-16T02:43:58.412Z,19.98
2023-04-16T02:46:25.546Z,19.70
2023-04-16T02:48:52.332Z,20.15
2023-04-16T02:51:19.069Z,19.80
2023-04-16T02:53:46.315Z,22.35
2023-04-16T02:56:13.310Z,21.80
2023-04-16T02:58:40.093Z,23.08
2023-04-16T03:01:06.905Z,23.73
2023-04-16T03:03:33.679Z,23.52
2023-04-16T03:06:00.460Z,23.58
2023-04-16T03:08:27.768Z,24.67
2023-04-16T03:10:54.492Z,24.48
2023-04-16T03:13:21.263Z,24.77
2023-04-16T03:15:51.283Z,25.73
2023-04-16T03:18:18.133Z,24.95
2023-04-16T03:20:44.911Z,27.85
2023-04-16T03:23:11.718Z,26.77
2023-04-16T03:25:40.758Z,26.02
2023-04-16T03:28:07.569Z,27.70
2023-04-16T03:30:34.371Z,26.15
2023-04-16T03:33:01.534Z,28.00
2023-04-16T03:35:28.367Z,27.55
2023-04-16T03:37:55.180Z,27.92
2023-04-16T03:40:21.933Z,26.77
2023-04-16T03:42:48.706Z,27.73
2023-04-16T03:45:15.839Z,27.30
2023-04-16T03:47:42.576Z,28.00
2023-04-16T03:50:09.829Z,27.73
2023-04-16T03:52:36.793Z,27.45
2023-04-16T03:55:04.336Z,27.10
2023-04-16T03:57:31.134Z,26.23
2023-04-16T04:00:00.813Z,27.40
2023-04-16T04:02:27.721Z,27.95
2023-04-16T04:04:55.228Z,28.58
2023-04-16T04:07:22.077Z,27.70
2023-04-16T04:09:48.816Z,27.33
2023-04-16T04:12:15.595Z,29.90
2023-04-16T04:14:42.362Z,29.17
2023-04-16T04:17:09.431Z,28.58
2023-04-16T04:19:37.775Z,29.92
2023-04-16T04:22:05.700Z,29.77
2023-04-16T04:24:32.528Z,29.20
2023-04-16T04:26:59.296Z,31.20
2023-04-16T04:29:26.067Z,29.63
2023-04-16T04:31:52.985Z,30.25
2023-04-16T04:34:19.760Z,30.35
2023-04-16T04:36:46.728Z,29.70
2023-04-16T04:39:13.428Z,30.75
2023-04-16T04:41:40.136Z,27.80
2023-04-16T04:44:06.907Z,32.03
2023-04-16T04:46:33.817Z,31.98
2023-04-16T04:49:00.555Z,31.13
2023-04-16T04:51:27.466Z,29.58
2023-04-16T04:53:54.182Z,30.60
2023-04-16T04:56:21.050Z,30.67
2023-04-16T04:58:47.778Z,29.50
2023-04-16T05:01:14.533Z,29.70
2023-04-16T05:03:41.650Z,30.65
2023-04-16T05:06:08.584Z,29.50
2023-04-16T05:08:35.295Z,31.10
2023-04-16T05:11:02.466Z,28.98
2023-04-16T05:13:29.199Z,30.90
2023-04-16T05:15:55.903Z,30.73
2023-04-16T05:18:22.901Z,33.00
2023-04-16T05:20:49.655Z,32.40
2023-04-16T05:23:16.601Z,31.50
2023-04-16T05:25:43.452Z,31.67
2023-04-16T05:28:11.030Z,31.90
2023-04-16T05:30:37.795Z,30.75
2023-04-16T05:33:04.564Z,31.95
2023-04-16T05:35:31.437Z,32.00
2023-04-16T05:37:58.129Z,32.53
2023-04-16T05:40:24.875Z,32.00
2023-04-16T05:42:51.934Z,32.28
2023-04-16T05:45:18.781Z,31.25
2023-04-16T05:47:45.564Z,32.35
2023-04-16T05:50:12.305Z,31.52
2023-04-16T05:52:39.180Z,32.00
2023-04-16T05:55:06.476Z,33.33
2023-04-16T05:57:33.940Z,31.92
2023-04-16T06:00:04.066Z,31.92
2023-04-16T06:02:31.803Z,31.63
2023-04-16T06:04:58.747Z,31.23
2023-04-16T06:07:25.596Z,30.73
2023-04-16T06:09:52.327Z,28.95
2023-04-16T06:12:19.083Z,30.98
2023-04-16T06:14:45.838Z,30.35
2023-04-16T06:17:12.610Z,29.80
2023-04-16T06:19:39.822Z,27.25
2023-04-16T06:22:06.859Z,28.65
2023-04-16T06:24:34.791Z,27.38
2023-04-16T06:27:01.525Z,27.10
2023-04-16T06:29:37.358Z,28.15
2023-04-16T06:32:08.198Z,25.27
2023-04-16T06:34:34.945Z,27.85
2023-04-16T06:37:01.756Z,25.98
2023-04-16T06:39:28.601Z,27.30
2023-04-16T06:41:56.349Z,26.30
2023-04-16T06:44:23.203Z,25.17
2023-04-16T06:46:51.276Z,25.02
2023-04-16T06:49:18.325Z,25.67
2023-04-16T06:51:45.153Z,25.15
2023-04-16T06:54:11.957Z,24.58
2023-04-16T06:56:38.688Z,24.60
2023-04-16T06:59:05.741Z,24.77
2023-04-16T07:01:32.690Z,23.58
2023-04-16T07:03:59.908Z,23.92
2023-04-16T07:06:27.386Z,23.20
2023-04-16T07:08:54.224Z,24.20
2023-04-16T07:11:21.210Z,22.40
2023-04-16T07:13:48.025Z,22.40
2023-04-16T07:16:14.880Z,23.15
2023-04-16T07:18:41.868Z,23.25
2023-04-16T07:21:08.630Z,20.40
2023-04-16T07:23:38.335Z,20.92
2023-04-16T07:26:05.111Z,20.10
2023-04-16T07:28:31.908Z,21.63
2023-04-16T07:31:01.636Z,20.33
2023-04-16T07:33:28.349Z,20.63
2023-04-16T07:35:55.112Z,21.90
2023-04-16T07:38:25.180Z,21.05
2023-04-16T07:40:52.313Z,20.17
2023-04-16T07:43:19.123Z,20.80
2023-04-16T07:45:46.102Z,20.63
2023-04-16T07:48:13.121Z,19.58
2023-04-16T07:50:39.985Z,21.02
2023-04-16T07:53:07.958Z,18.50
2023-04-16T07:55:34.960Z,19.88
2023-04-16T07:58:03.058Z,18.77
2023-04-16T08:00:30.204Z,18.52
2023-04-16T08:02:57.110Z,17.45
2023-04-16T08:05:24.000Z,19.05
2023-04-16T08:07:50.816Z,17.90
2023-04-16T08:10:17.554Z,18.77
2023-04-16T08:12:44.331Z,17.88
2023-04-16T08:15:11.791Z,18.00
2023-04-16T08:17:39.067Z,17.48
2023-04-16T08:20:06.705Z,16.98
2023-04-16T08:22:34.147Z,17.73
2023-04-16T08:25:00.974Z,16.90
2023-04-16T08:27:27.741Z,17.67
2023-04-16T08:29:54.511Z,17.30
2023-04-16T08:32:21.354Z,17.95
2023-04-16T08:34:48.222Z,17.58
2023-04-16T08:37:15.017Z,16.52
2023-04-16T08:39:41.996Z,16.13
2023-04-16T08:42:19.191Z,16.17
2023-04-16T08:44:49.850Z,17.05
2023-04-16T08:47:16.953Z,15.82
2023-04-16T08:49:46.333Z,14.85
2023-04-16T08:52:20.482Z,15.10
2023-04-16T08:54:56.824Z,15.35
2023-04-16T08:57:27.145Z,14.43
2023-04-16T08:59:56.151Z,15.50
2023-04-16T09:02:23.347Z,14.25
2023-04-16T09:04:51.590Z,14.50
2023-04-16T09:07:21.149Z,14.18
2023-04-16T09:09:50.246Z,14.23
2023-04-16T09:12:17.818Z,13.23
2023-04-16T09:14:49.713Z,13.45
2023-04-16T09:17:17.244Z,13.40
2023-04-16T09:19:44.799Z,13.13
2023-04-16T09:22:12.482Z,12.63
2023-04-16T09:24:39.354Z,12.32
2023-04-16T09:27:09.108Z,12.98
2023-04-16T09:29:40.693Z,12.32
2023-04-16T09:32:11.655Z,11.98
2023-04-16T09:35:01.053Z,11.55
2023-04-16T09:37:31.405Z,11.07
2023-04-16T09:40:02.633Z,11.48
2023-04-16T09:42:32.095Z,10.52
2023-04-16T09:45:00.913Z,9.45
2023-04-16T09:47:43.492Z,9.73
2023-04-16T09:50:18.205Z,9.20
2023-04-16T09:52:48.751Z,9.75
2023-04-16T09:55:15.665Z,7.55
2023-04-16T09:57:42.390Z,8.23
2023-04-16T10:00:10.643Z,8.30
2023-04-16T10:02:42.791Z,7.72
2023-04-16T10:05:10.055Z,7.97
2023-04-16T10:07:37.827Z,7.43
2023-04-16T10:10:05.615Z,7.80
2023-04-16T10:12:35.190Z,8.00
2023-04-16T10:15:02.177Z,8.05
2023-04-16T10:17:32.157Z,8.35
2023-04-16T10:20:01.895Z,7.20
2023-04-16T10:22:28.857Z,7.15
2023-04-16T10:24:56.470Z,7.72
2023-04-16T10:27:23.197Z,7.82
2023-04-16T10:29:50.855Z,7.75
2023-04-16T10:32:21.038Z,7.70
2023-04-16T10:34:48.285Z,7.65
2023-04-16T10:37:18.244Z,7.25
2023-04-16T10:39:45.512Z,7.07
2023-04-16T10:42:13.109Z,6.65
2023-04-16T10:44:43.504Z,7.53
2023-04-16T10:47:13.427Z,6.97
2023-04-16T10:49:41.371Z,6.82
2023-04-16T10:52:13.309Z,6.97
2023-04-16T10:54:41.306Z,7.05
2023-04-16T10:57:16.421Z,6.65
2023-04-16T10:59:44.757Z,6.95
2023-04-16T11:02:17.090Z,6.82
2023-04-16T11:04:46.012Z,6.35
2023-04-16T11:07:15.721Z,7.45
2023-04-16T11:09:53.323Z,6.80
2023-04-16T11:12:33.583Z,6.78
2023-04-16T11:15:05.828Z,5.40
2023-04-16T11:17:36.748Z,6.15
2023-04-16T11:20:19.604Z,5.72
2023-04-16T11:22:51.291Z,5.93
2023-04-16T11:25:25.028Z,6.40
2023-04-16T11:27:52.400Z,5.70
2023-04-16T11:30:28.099Z,5.15
2023-04-16T11:32:55.050Z,5.20
2023-04-16T11:35:22.076Z,5.05
2023-04-16T11:37:49.130Z,5.47
2023-04-16T11:40:16.020Z,5.90
2023-04-16T11:42:43.075Z,5.22
2023-04-16T11:45:12.199Z,5.53
2023-04-16T11:47:52.394Z,4.38
2023-04-16T11:50:23.313Z,3.90
2023-04-16T11:52:52.173Z,4.38
2023-04-16T11:55:19.910Z,4.72
2023-04-16T11:57:47.300Z,4.70
2023-04-16T12:00:14.904Z,3.90
2023-04-16T12:02:59.831Z,3.75
2023-04-16T12:05:35.378Z,3.80
2023-04-16T12:08:04.377Z,3.88
2023-04-16T12:10:37.466Z,4.10
2023-04-16T12:13:30.953Z,3.83
2023-04-16T12:15:57.930Z,3.25
2023-04-16T12:18:28.849Z,3.92
2023-04-16T12:20:55.743Z,3.08
2023-04-16T12:23:42.804Z,3.45
2023-04-16T12:26:12.528Z,3.72
2023-04-16T12:28:40.613Z,4.18
2023-04-16T12:31:08.720Z,4.13
2023-04-16T12:33:35.733Z,4.05
2023-04-16T12:36:17.554Z,4.50
2023-04-16T12:38:44.345Z,4.72
2023-04-16T12:41:11.126Z,4.90
2023-04-16T12:43:37.981Z,5.38
2023-04-16T12:46:05.124Z,5.00
2023-04-16T12:48:32.830Z,4.60
2023-04-16T12:50:59.571Z,5.50
2023-04-16T12:53:26.361Z,4.80
2023-04-16T12:55:53.327Z,5.97
2023-04-16T12:58:20.153Z,5.93
2023-04-16T13:00:46.915Z,5.65
2023-04-16T13:03:13.861Z,5.55
2023-04-16T13:05:40.863Z,5.80
2023-04-16T13:08:07.648Z,5.95
2023-04-16T13:10:35.658Z,6.05
2023-04-16T13:13:02.384Z,5.15
2023-04-16T13:15:31.721Z,5.03
2023-04-16T13:17:58.603Z,5.43
2023-04-16T13:20:25.565Z,5.50
2023-04-16T13:22:52.331Z,5.07
2023-04-16T13:25:19.168Z,5.18
2023-04-16T13:27:45.962Z,5.15
2023-04-16T13:30:13.155Z,5.68
2023-04-16T13:32:41.079Z,5.13
2023-04-16T13:35:08.273Z,5.80
2023-04-16T13:37:35.029Z,5.80
2023-04-16T13:40:02.081Z,5.70
2023-04-16T13:42:28.898Z,5.80
2023-04-16T13:44:55.733Z,6.30
2023-04-16T13:47:22.505Z,6.25
2023-04-16T13:49:49.580Z,6.07
2023-04-16T13:52:16.548Z,5.75
2023-04-16T13:54:43.342Z,6.78
2023-04-16T13:57:10.156Z,6.55
2023-04-16T13:59:36.993Z,6.68
2023-04-16T14:02:03.916Z,7.03
2023-04-16T14:04:31.522Z,6.97
2023-04-16T14:06:58.266Z,7.50
2023-04-16T14:09:25.082Z,6.95
2023-04-16T14:11:51.828Z,6.93
2023-04-16T14:14:18.717Z,7.50
2023-04-16T14:16:45.649Z,7.35
2023-04-16T14:19:13.241Z,7.57
2023-04-16T14:21:40.177Z,7.65
2023-04-16T14:24:07.502Z,8.00
2023-04-16T14:26:34.257Z,7.20
2023-04-16T14:29:01.226Z,7.35
2023-04-16T14:31:28.078Z,7.75
2023-04-16T14:33:54.894Z,7.60
2023-04-16T14:36:21.686Z,7.53
2023-04-16T14:38:48.649Z,8.15
2023-04-16T14:41:15.449Z,7.28
2023-04-16T14:43:44.524Z,7.82
2023-04-16T14:46:11.300Z,7.75
2023-04-16T14:48:38.020Z,8.20
2023-04-16T14:51:04.888Z,8.55
2023-04-16T14:53:31.790Z,7.82
2023-04-16T14:55:59.238Z,7.95
2023-04-16T14:58:26.417Z,8.23
2023-04-16T15:00:53.766Z,7.95
2023-04-16T15:03:20.888Z,7.35
2023-04-16T15:05:55.501Z,7.90
2023-04-16T15:08:23.327Z,8.50
2023-04-16T15:10:50.981Z,8.63
2023-04-16T15:13:18.258Z,7.97
2023-04-16T15:15:45.309Z,8.10
2023-04-16T15:18:12.165Z,7.60
2023-04-16T15:20:39.050Z,8.20
2023-04-16T15:23:06.142Z,8.55
2023-04-16T15:25:32.931Z,8.35
2023-04-16T15:27:59.974Z,7.90
2023-04-16T15:30:26.718Z,8.20
2023-04-16T15:32:55.199Z,9.27
2023-04-16T15:35:22.179Z,7.95
2023-04-16T15:37:49.098Z,8.57
2023-04-16T15:40:19.045Z,8.07
2023-04-16T15:42:45.913Z,8.32
2023-04-16T15:45:12.789Z,8.23
2023-04-16T15:47:41.683Z,9.35
2023-04-16T15:50:09.068Z,8.40
2023-04-16T15:52:36.572Z,8.95
2023-04-16T15:55:04.305Z,9.05
2023-04-16T15:57:31.349Z,9.10
2023-04-16T16:02:30.075Z,9.82
2023-04-16T16:04:57.033Z,9.30
2023-04-16T16:07:25.748Z,9.02
2023-04-16T16:09:53.532Z,8.23
2023-04-16T16:12:20.611Z,8.82
2023-04-16T16:14:47.998Z,8.27
2023-04-16T16:17:15.145Z,8.43
2023-04-16T16:19:43.410Z,8.77
2023-04-16T16:22:11.442Z,8.43
2023-04-16T16:24:38.366Z,8.45
2023-04-16T16:27:06.184Z,8.02
2023-04-16T16:29:33.015Z,8.35
2023-04-16T16:32:00.063Z,8.45
2023-04-16T16:34:26.997Z,9.13
2023-04-16T16:36:53.725Z,8.38
2023-04-16T16:39:24.602Z,9.02
2023-04-16T16:41:54.757Z,8.25
2023-04-16T16:44:22.250Z,7.75
2023-04-16T16:46:49.882Z,8.40
2023-04-16T16:49:18.798Z,7.80
2023-04-16T16:51:47.269Z,7.85
2023-04-16T16:54:14.877Z,7.85
2023-04-16T16:56:43.588Z,7.50
2023-04-16T16:59:12.346Z,8.02
2023-04-16T17:01:41.315Z,7.93
2023-04-16T17:04:08.762Z,9.05
2023-04-16T17:06:44.349Z,8.98
2023-04-16T17:09:11.819Z,8.82
2023-04-16T17:11:40.328Z,8.00
2023-04-16T17:14:07.681Z,7.95
2023-04-16T17:16:35.152Z,7.03
2023-04-16T17:19:04.993Z,6.60
2023-04-16T17:21:33.604Z,7.05
2023-04-16T17:24:00.953Z,7.57
2023-04-16T17:26:30.276Z,6.95
2023-04-16T17:28:58.473Z,6.68
2023-04-16T17:31:27.309Z,6.78
2023-04-16T17:33:54.543Z,7.35
2023-04-16T17:36:26.246Z,6.15
2023-04-16T17:38:57.815Z,5.93
2023-04-16T17:41:25.340Z,6.65
2023-04-16T17:43:52.957Z,6.28
2023-04-16T17:46:21.706Z,7.13
2023-04-16T17:48:49.903Z,6.35
2023-04-16T17:51:17.272Z,7.35
2023-04-16T17:53:48.009Z,6.95
2023-04-16T17:56:17.080Z,7.10
2023-04-16T17:58:47.036Z,6.75
2023-04-16T18:01:15.300Z,6.93
2023-04-16T18:03:44.746Z,8.23
2023-04-16T18:06:12.138Z,7.07
2023-04-16T18:08:39.686Z,7.70
2023-04-16T18:11:08.768Z,6.78
2023-04-16T18:13:36.063Z,7.43
2023-04-16T18:16:03.437Z,7.85
2023-04-16T18:18:30.741Z,7.50
2023-04-16T18:20:59.750Z,8.35
2023-04-16T18:23:27.727Z,7.93
2023-04-16T18:25:55.040Z,8.75
2023-04-16T18:28:22.194Z,8.50
2023-04-16T18:30:52.233Z,8.57
2023-04-16T18:33:44.373Z,8.57
2023-04-16T18:36:07.906Z,9.18
2023-04-16T18:38:34.795Z,8.85
2023-04-16T18:41:02.227Z,9.27
2023-04-16T18:43:29.182Z,9.38
2023-04-16T18:45:56.355Z,9.00
2023-04-16T18:48:27.045Z,9.90
2023-04-16T18:50:54.918Z,8.98
2023-04-16T18:53:21.926Z,9.40
2023-04-16T18:55:53.670Z,9.65
2023-04-16T18:58:20.691Z,10.05
2023-04-16T19:00:48.055Z,10.10
2023-04-16T19:03:15.672Z,9.80
2023-04-16T19:05:42.500Z,10.05
2023-04-16T19:08:09.228Z,9.88
2023-04-16T19:10:36.079Z,10.18
2023-04-16T19:13:02.892Z,10.30
2023-04-16T19:15:32.082Z,9.27
2023-04-16T19:17:59.967Z,9.98
2023-04-16T19:20:27.375Z,11.02
2023-04-16T19:22:54.169Z,10.25
2023-04-16T19:25:21.100Z,9.80
2023-04-16T19:27:48.234Z,10.45
2023-04-16T19:30:15.040Z,10.77
2023-04-16T19:32:41.821Z,10.82
2023-04-16T19:35:09.804Z,10.10
2023-04-16T19:37:36.536Z,10.45
2023-04-16T19:40:05.925Z,10.70
2023-04-16T19:42:33.309Z,10.95
2023-04-16T19:45:00.175Z,11.20
2023-04-16T19:47:27.819Z,11.90
2023-04-16T19:49:54.737Z,11.25
2023-04-16T19:52:21.504Z,11.75
2023-04-16T19:54:48.273Z,12.10
2023-04-16T19:57:15.053Z,11.18
2023-04-16T19:59:42.620Z,11.70
2023-04-16T20:02:09.709Z,12.15
2023-04-16T20:04:36.534Z,11.20
2023-04-16T20:07:03.460Z,11.68
2023-04-16T20:09:30.321Z,12.75
2023-04-16T20:11:58.242Z,12.05
2023-04-16T20:14:25.040Z,12.25
2023-04-16T20:16:52.484Z,12.88
2023-04-16T20:19:19.846Z,12.43
2023-04-16T20:21:46.670Z,12.68
2023-04-16T20:24:15.569Z,13.38
2023-04-16T20:26:42.377Z,13.20
2023-04-16T20:29:10.423Z,12.90
2023-04-16T20:31:37.612Z,12.60
2023-04-16T20:34:04.377Z,13.68
2023-04-16T20:36:32.145Z,13.48
2023-04-16T20:39:00.150Z,13.40
2023-04-16T20:41:30.236Z,13.98
2023-04-16T20:43:56.991Z,13.55
2023-04-16T20:46:24.641Z,13.43
2023-04-16T20:48:52.237Z,13.57
2023-04-16T20:51:18.995Z,13.70
2023-04-16T20:53:46.014Z,14.02
2023-04-16T20:56:15.131Z,13.95
2023-04-16T20:58:42.956Z,13.30
2023-04-16T21:01:09.909Z,13.73
2023-04-16T21:03:37.368Z,14.25
2023-04-16T21:06:04.598Z,14.63
2023-04-16T21:08:31.488Z,14.68
2023-04-16T21:10:58.406Z,14.13
2023-04-16T21:13:25.269Z,15.13
2023-04-16T21:15:52.236Z,14.85
2023-04-16T21:18:18.981Z,14.43
2023-04-16T21:20:45.768Z,14.38
2023-04-16T21:23:12.540Z,15.25
2023-04-16T21:25:39.438Z,14.32
2023-04-16T21:28:06.593Z,15.95
2023-04-16T21:30:33.455Z,14.90
2023-04-16T21:33:00.381Z,15.15
2023-04-16T21:35:27.133Z,15.20
2023-04-16T21:37:53.850Z,15.70
2023-04-16T21:40:20.765Z,14.63
2023-04-16T21:42:47.531Z,15.07
2023-04-16T21:45:14.790Z,15.43
2023-04-16T21:47:41.613Z,15.40
2023-04-16T21:50:08.882Z,14.85
2023-04-16T21:52:40.726Z,14.95
2023-04-16T21:55:09.694Z,15.70
2023-04-16T21:57:36.508Z,15.63
2023-04-16T22:00:09.323Z,15.70
2023-04-16T22:02:36.315Z,15.20
2023-04-16T22:05:03.581Z,17.02
2023-04-16T22:07:30.809Z,16.10
2023-04-16T22:09:57.720Z,15.40
2023-04-16T22:12:24.479Z,16.55
2023-04-16T22:15:01.963Z,16.15
2023-04-16T22:17:30.435Z,16.27
2023-04-16T22:20:00.744Z,17.00
2023-04-16T22:22:27.555Z,16.40
2023-04-16T22:24:54.417Z,17.38
2023-04-16T22:27:21.611Z,16.65
2023-04-16T22:29:48.365Z,16.60
2023-04-16T22:32:15.230Z,16.85
2023-04-16T22:34:42.122Z,15.95
2023-04-16T22:37:08.893Z,16.70
2023-04-16T22:39:35.831Z,17.38
2023-04-16T22:42:03.062Z,15.85
2023-04-16T22:44:29.835Z,17.00
2023-04-16T22:46:56.559Z,17.85
2023-04-16T22:49:23.450Z,17.00
2023-04-16T22:51:50.380Z,17.17
2023-04-16T22:54:17.092Z,17.05
2023-04-16T22:56:43.847Z,16.98
2023-04-16T22:59:10.803Z,17.95
2023-04-16T23:01:37.810Z,17.88
2023-04-16T23:04:04.868Z,17.13
2023-04-16T23:06:31.800Z,18.60
2023-04-16T23:08:58.617Z,17.20
2023-04-16T23:11:28.270Z,16.73
2023-04-16T23:13:55.126Z,16.67
2023-04-16T23:16:21.901Z,16.83
2023-04-16T23:18:48.697Z,18.17
2023-04-16T23:21:15.452Z,17.13
2023-04-16T23:23:42.228Z,16.10
2023-04-16T23:26:09.061Z,16.85
2023-04-16T23:28:35.828Z,17.00
2023-04-16T23:31:04.228Z,16.77
2023-04-16T23:33:32.769Z,17.60
2023-04-16T23:35:59.504Z,17.00
2023-04-16T23:38:26.238Z,16.52
2023-04-16T23:40:53.045Z,16.58
2023-04-16T23:43:19.862Z,15.95
2023-04-16T23:45:46.765Z,16.58
2023-04-16T23:48:13.576Z,15.60
2023-04-16T23:50:40.643Z,16.42
2023-04-16T23:53:08.097Z,15.57
2023-04-16T23:55:34.924Z,15.35
2023-04-16T23:58:01.712Z,15.30
